Time;durP1;ratioP1;P1;durP2;ratioP2;P2;SDS_P1;SDS_P2;PMS_P1;PMS_P2;Temp;Humidity;BMP_temperature;BMP_pressure;BME280_temperature;BME280_humidity;BME280_pressure;Samples;Min_cycle;Max_cycle;Signal;HPM_P1;HPM_P2
2023/03/24 00:00:24;;;;;;;4.97;2.65;;;;;;;;;;5073587;28;20032;-62
2023/03/24 00:02:50;;;;;;;8.63;3.22;;;;;;;;;;5086436;28;20012;-62
2023/03/24 00:05:18;;;;;;;7.35;3.00;;;;;;;;;;5073612;28;20033;-62
2023/03/24 00:07:43;;;;;;;6.20;2.60;;;;;;;;;;5073475;28;20040;-62
2023/03/24 00:10:13;;;;;;;5.85;3.17;;;;;;;;;;5080356;28;20031;-62
2023/03/24 00:12:39;;;;;;;6.22;3.30;;;;;;;;;;5073546;28;20071;-62
2023/03/24 00:15:06;;;;;;;5.95;3.13;;;;;;;;;;5073161;28;20048;-63
2023/03/24 00:17:34;;;;;;;6.30;3.30;;;;;;;;;;5073271;28;20024;-62
2023/03/24 00:19:59;;;;;;;4.05;2.58;;;;;;;;;;5073706;28;20119;-62
2023/03/24 00:22:27;;;;;;;5.30;2.65;;;;;;;;;;5079491;28;20458;-62
2023/03/24 00:24:53;;;;;;;4.47;2.78;;;;;;;;;;5074302;28;20056;-62
2023/03/24 00:27:18;;;;;;;5.30;3.15;;;;;;;;;;5073601;28;20028;-62
2023/03/24 00:29:44;;;;;;;4.05;2.72;;;;;;;;;;5074455;28;20021;-62
2023/03/24 00:32:09;;;;;;;10.38;3.03;;;;;;;;;;5072995;28;20028;-62
2023/03/24 00:34:37;;;;;;;5.82;2.90;;;;;;;;;;5073046;28;20093;-62
2023/03/24 00:37:03;;;;;;;5.13;2.90;;;;;;;;;;5073868;28;20021;-62
2023/03/24 00:39:29;;;;;;;4.80;3.17;;;;;;;;;;5073133;28;20482;-62
2023/03/24 00:41:57;;;;;;;4.10;2.50;;;;;;;;;;5073419;28;20025;-62
2023/03/24 00:44:22;;;;;;;4.63;3.13;;;;;;;;;;5073336;28;20021;-63
2023/03/24 00:46:54;;;;;;;5.18;3.03;;;;;;;;;;5073233;28;20093;-62
2023/03/24 00:49:24;;;;;;;9.25;3.15;;;;;;;;;;5072952;28;20501;-62
2023/03/24 00:51:50;;;;;;;5.30;3.55;;;;;;;;;;5073054;28;20077;-62
2023/03/24 00:54:20;;;;;;;6.13;3.33;;;;;;;;;;5073684;28;20021;-62
2023/03/24 00:56:48;;;;;;;5.57;3.30;;;;;;;;;;5072554;28;20028;-62
2023/03/24 00:59:13;;;;;;;6.03;3.28;;;;;;;;;;5072551;28;20024;-62
2023/03/24 01:01:39;;;;;;;7.32;3.20;;;;;;;;;;5072865;28;20046;-62
2023/03/24 01:04:05;;;;;;;8.05;3.47;;;;;;;;;;5078620;28;20065;-62
2023/03/24 01:06:30;;;;;;;6.35;3.75;;;;;;;;;;5092831;28;20036;-62
2023/03/24 01:08:56;;;;;;;5.00;3.20;;;;;;;;;;5073352;28;20103;-62
2023/03/24 01:11:23;;;;;;;6.13;3.85;;;;;;;;;;5084746;28;20024;-62
2023/03/24 01:13:48;;;;;;;5.03;3.60;;;;;;;;;;5085054;28;20027;-62
2023/03/24 01:16:14;;;;;;;4.40;3.10;;;;;;;;;;5072928;28;20095;-62
2023/03/24 01:18:39;;;;;;;5.38;3.65;;;;;;;;;;5073066;28;20028;-62
2023/03/24 01:21:05;;;;;;;6.85;3.42;;;;;;;;;;5072818;28;20056;-62
2023/03/24 01:23:31;;;;;;;5.63;3.53;;;;;;;;;;5072551;28;20048;-62
2023/03/24 01:25:56;;;;;;;8.52;3.78;;;;;;;;;;5072802;28;20483;-62
2023/03/24 01:28:23;;;;;;;7.22;3.88;;;;;;;;;;5076395;28;20028;-62
2023/03/24 01:30:49;;;;;;;6.57;3.42;;;;;;;;;;5072151;28;20099;-62
2023/03/24 01:33:14;;;;;;;6.63;3.85;;;;;;;;;;5071548;28;20443;-62
2023/03/24 01:35:40;;;;;;;5.38;4.05;;;;;;;;;;5072001;28;20036;-62
2023/03/24 01:38:06;;;;;;;5.75;4.15;;;;;;;;;;5071847;28;20036;-62
2023/03/24 01:40:32;;;;;;;6.72;3.83;;;;;;;;;;5072023;28;20028;-62
2023/03/24 01:42:58;;;;;;;6.72;4.20;;;;;;;;;;5081206;28;20065;-62
2023/03/24 01:45:41;;;;;;;4.53;3.40;;;;;;;;;;5072723;28;20021;-62
2023/03/24 01:48:27;;;;;;;9.13;3.58;;;;;;;;;;5083711;28;20073;-62
2023/03/24 01:51:19;;;;;;;5.75;3.90;;;;;;;;;;5079409;28;20048;-62
2023/03/24 01:53:56;;;;;;;6.72;3.63;;;;;;;;;;5051760;28;20473;-62
2023/03/24 01:56:23;;;;;;;5.07;3.47;;;;;;;;;;5071601;28;20031;-62
2023/03/24 01:58:50;;;;;;;6.47;3.58;;;;;;;;;;5071390;28;20064;-62
2023/03/24 02:01:16;;;;;;;7.50;3.70;;;;;;;;;;5071842;28;20070;-62
2023/03/24 02:03:43;;;;;;;11.07;3.65;;;;;;;;;;5073281;28;20367;-62
2023/03/24 02:06:08;;;;;;;5.53;3.22;;;;;;;;;;5082017;28;20090;-62
2023/03/24 02:09:00;;;;;;;7.60;3.92;;;;;;;;;;5071069;28;20021;-62
2023/03/24 02:11:27;;;;;;;4.65;3.28;;;;;;;;;;5067264;28;20043;-63
2023/03/24 02:13:53;;;;;;;6.82;3.63;;;;;;;;;;5075107;28;20047;-62
2023/03/24 02:16:28;;;;;;;6.25;3.13;;;;;;;;;;5078158;28;20021;-62
2023/03/24 02:18:56;;;;;;;4.00;3.08;;;;;;;;;;5071569;28;20066;-62
2023/03/24 02:21:40;;;;;;;5.07;2.90;;;;;;;;;;5075213;28;20016;-62
2023/03/24 02:24:24;;;;;;;6.40;3.47;;;;;;;;;;5078044;28;20016;-62
2023/03/24 02:26:58;;;;;;;6.20;2.80;;;;;;;;;;5074616;28;20067;-63
2023/03/24 02:29:41;;;;;;;5.25;3.42;;;;;;;;;;5074327;28;20033;-62
2023/03/24 02:32:09;;;;;;;4.22;2.75;;;;;;;;;;5075127;28;20046;-62
2023/03/24 02:34:39;;;;;;;4.55;2.60;;;;;;;;;;5074068;28;20025;-63
2023/03/24 02:37:26;;;;;;;4.07;2.30;;;;;;;;;;5074783;28;20012;-62
2023/03/24 02:39:55;;;;;;;4.15;2.78;;;;;;;;;;5074682;28;20489;-62
2023/03/24 02:42:39;;;;;;;4.65;2.80;;;;;;;;;;5077233;28;20386;-62
2023/03/24 02:45:23;;;;;;;6.90;2.90;;;;;;;;;;5074553;28;20039;-62
2023/03/24 02:47:51;;;;;;;5.90;2.47;;;;;;;;;;5074781;28;20051;-62
2023/03/24 02:50:22;;;;;;;6.15;2.30;;;;;;;;;;5081084;28;20059;-62
2023/03/24 02:52:51;;;;;;;4.93;2.88;;;;;;;;;;5074529;28;20064;-62
2023/03/24 02:55:20;;;;;;;7.20;2.72;;;;;;;;;;5080871;28;20032;-62
2023/03/24 02:57:46;;;;;;;6.72;2.75;;;;;;;;;;5082483;28;20024;-62
2023/03/24 03:00:46;;;;;;;3.25;2.20;;;;;;;;;;5078155;28;20020;-62
2023/03/24 03:03:15;;;;;;;5.47;2.70;;;;;;;;;;5012020;28;20029;-62
2023/03/24 03:05:46;;;;;;;5.20;2.78;;;;;;;;;;5062536;28;20051;-62
2023/03/24 03:08:13;;;;;;;6.25;3.15;;;;;;;;;;5074235;28;20024;-62
2023/03/24 03:10:41;;;;;;;4.80;2.85;;;;;;;;;;5087311;28;20114;-62
2023/03/24 03:13:09;;;;;;;5.28;3.17;;;;;;;;;;5088252;28;20034;-62
2023/03/24 03:15:36;;;;;;;4.97;3.03;;;;;;;;;;5079899;28;20511;-62
2023/03/24 03:18:07;;;;;;;5.97;3.45;;;;;;;;;;5085834;28;20020;-62
2023/03/24 03:20:36;;;;;;;5.10;3.40;;;;;;;;;;5087049;28;20031;-62
2023/03/24 03:23:04;;;;;;;6.40;4.15;;;;;;;;;;5074142;28;20017;-62
2023/03/24 03:25:33;;;;;;;5.78;3.70;;;;;;;;;;5074407;28;20030;-62
2023/03/24 03:28:01;;;;;;;3.72;2.55;;;;;;;;;;5073503;28;20119;-62
2023/03/24 03:30:55;;;;;;;8.10;2.58;;;;;;;;;;5073348;28;20451;-62
2023/03/24 03:33:25;;;;;;;4.80;2.58;;;;;;;;;;5051746;28;20513;-62
2023/03/24 03:35:53;;;;;;;4.95;2.58;;;;;;;;;;5091284;28;20027;-61
2023/03/24 03:38:21;;;;;;;5.07;2.80;;;;;;;;;;5079544;28;20024;-62
2023/03/24 03:40:54;;;;;;;4.65;2.92;;;;;;;;;;5073930;28;20442;-62
2023/03/24 03:43:20;;;;;;;4.95;3.22;;;;;;;;;;5073677;28;20487;-62
2023/03/24 03:45:45;;;;;;;4.78;3.05;;;;;;;;;;5080243;28;20045;-62
2023/03/24 03:48:11;;;;;;;5.53;2.90;;;;;;;;;;5093519;28;20019;-62
2023/03/24 03:50:37;;;;;;;3.83;2.53;;;;;;;;;;5089626;28;20386;-62
2023/03/24 03:53:03;;;;;;;4.32;2.13;;;;;;;;;;5076240;28;20029;-62
2023/03/24 03:55:29;;;;;;;3.95;2.58;;;;;;;;;;5091204;28;20032;-62
2023/03/24 03:57:55;;;;;;;5.20;2.20;;;;;;;;;;5073137;28;20482;-62
2023/03/24 04:00:21;;;;;;;4.55;3.00;;;;;;;;;;5073594;28;20020;-62
2023/03/24 04:02:49;;;;;;;4.50;2.30;;;;;;;;;;5073075;28;20044;-62
2023/03/24 04:05:20;;;;;;;3.53;2.17;;;;;;;;;;5073404;28;20037;-61
2023/03/24 04:07:51;;;;;;;3.28;1.77;;;;;;;;;;5073284;28;20056;-61
2023/03/24 04:10:16;;;;;;;4.07;1.77;;;;;;;;;;5084541;28;20062;-62
2023/03/24 04:13:08;;;;;;;4.30;1.75;;;;;;;;;;5076404;28;20020;-62
2023/03/24 04:15:34;;;;;;;6.10;1.80;;;;;;;;;;5073792;28;20116;-62
2023/03/24 04:18:09;;;;;;;3.75;1.60;;;;;;;;;;5080385;28;20024;-62
2023/03/24 04:20:37;;;;;;;6.53;2.03;;;;;;;;;;5077900;28;20028;-61
2023/03/24 04:23:13;;;;;;;3.30;1.50;;;;;;;;;;5072982;28;20028;-61
2023/03/24 04:25:39;;;;;;;3.80;0.90;;;;;;;;;;5072926;28;20032;-62
2023/03/24 04:28:14;;;;;;;8.85;1.77;;;;;;;;;;5072950;28;20031;-61
2023/03/24 04:30:39;;;;;;;10.00;2.05;;;;;;;;;;5073077;28;20029;-61
2023/03/24 04:33:09;;;;;;;5.45;1.30;;;;;;;;;;5085133;28;20017;-61
2023/03/24 04:35:42;;;;;;;5.40;1.70;;;;;;;;;;5073110;28;20029;-61
2023/03/24 04:38:26;;;;;;;9.35;1.35;;;;;;;;;;5072601;28;20017;-62
2023/03/24 04:40:54;;;;;;;5.47;1.75;;;;;;;;;;5077429;28;20020;-61
2023/03/24 04:43:23;;;;;;;6.63;1.70;;;;;;;;;;5080269;28;20028;-62
2023/03/24 04:45:49;;;;;;;4.88;1.95;;;;;;;;;;5074067;28;20483;-62
2023/03/24 04:48:16;;;;;;;3.85;1.15;;;;;;;;;;5073234;28;20046;-61
2023/03/24 04:50:42;;;;;;;6.75;1.95;;;;;;;;;;5083999;28;20028;-61
2023/03/24 04:53:08;;;;;;;2.85;1.10;;;;;;;;;;5072378;28;20025;-62
2023/03/24 04:55:36;;;;;;;5.57;1.58;;;;;;;;;;5072709;28;20027;-62
2023/03/24 04:58:02;;;;;;;2.80;1.00;;;;;;;;;;5072502;28;20139;-62
2023/03/24 05:00:28;;;;;;;7.72;2.38;;;;;;;;;;5072618;28;20488;-62
2023/03/24 05:02:53;;;;;;;6.55;1.80;;;;;;;;;;5072437;28;20073;-62
2023/03/24 05:05:19;;;;;;;6.18;1.90;;;;;;;;;;5071713;28;20472;-62
2023/03/24 05:07:44;;;;;;;4.88;1.77;;;;;;;;;;5072611;28;20375;-61
2023/03/24 05:10:10;;;;;;;4.28;1.65;;;;;;;;;;5088666;28;20028;-62
2023/03/24 05:12:35;;;;;;;6.53;1.55;;;;;;;;;;5076083;28;20041;-61
2023/03/24 05:15:01;;;;;;;4.82;1.30;;;;;;;;;;5071743;28;20484;-62
2023/03/24 05:17:26;;;;;;;4.18;1.45;;;;;;;;;;5072746;28;20069;-61
2023/03/24 05:19:51;;;;;;;6.70;1.70;;;;;;;;;;5072149;28;20024;-62
2023/03/24 05:22:17;;;;;;;6.03;1.60;;;;;;;;;;5072501;28;20056;-61
2023/03/24 05:24:42;;;;;;;5.80;2.08;;;;;;;;;;5071981;28;20036;-61
2023/03/24 05:27:07;;;;;;;9.23;1.63;;;;;;;;;;5079567;28;20043;-61
2023/03/24 05:29:32;;;;;;;7.05;2.30;;;;;;;;;;5072227;28;20467;-61
2023/03/24 05:31:58;;;;;;;5.32;2.05;;;;;;;;;;5072412;28;20067;-62
2023/03/24 05:34:23;;;;;;;8.55;2.40;;;;;;;;;;5071799;28;20020;-62
2023/03/24 05:36:48;;;;;;;16.73;2.97;;;;;;;;;;5073538;28;20036;-61
2023/03/24 05:39:13;;;;;;;6.95;2.47;;;;;;;;;;5070992;28;20054;-61
2023/03/24 05:41:38;;;;;;;11.70;2.42;;;;;;;;;;5073169;28;20060;-61
2023/03/24 05:44:04;;;;;;;10.05;2.72;;;;;;;;;;5072050;28;20431;-61
2023/03/24 05:46:29;;;;;;;9.70;3.00;;;;;;;;;;5079254;28;20063;-61
2023/03/24 05:48:55;;;;;;;9.18;2.65;;;;;;;;;;5071657;28;20017;-61
2023/03/24 05:51:20;;;;;;;9.60;2.20;;;;;;;;;;5072493;28;20024;-61
2023/03/24 05:53:45;;;;;;;7.55;2.97;;;;;;;;;;5071694;28;20379;-61
2023/03/24 05:56:11;;;;;;;11.90;2.90;;;;;;;;;;5081344;28;20027;-61
2023/03/24 05:58:38;;;;;;;8.00;2.53;;;;;;;;;;5074029;28;20020;-61
2023/03/24 06:01:07;;;;;;;6.60;3.05;;;;;;;;;;5072433;28;20379;-61
2023/03/24 06:03:33;;;;;;;8.52;2.72;;;;;;;;;;5074712;28;20012;-61
2023/03/24 06:05:58;;;;;;;14.50;3.72;;;;;;;;;;5080801;28;20351;-62
2023/03/24 06:08:23;;;;;;;7.53;3.05;;;;;;;;;;5071476;28;20035;-62
2023/03/24 06:10:49;;;;;;;8.88;3.08;;;;;;;;;;5084734;28;20028;-61
2023/03/24 06:13:14;;;;;;;11.35;3.78;;;;;;;;;;5072142;28;20082;-62
2023/03/24 06:15:41;;;;;;;11.23;3.17;;;;;;;;;;5071675;28;20021;-61
2023/03/24 06:18:06;;;;;;;8.02;3.00;;;;;;;;;;5071743;28;20020;-61
2023/03/24 06:20:32;;;;;;;8.98;3.38;;;;;;;;;;5073319;28;20035;-62
2023/03/24 06:22:58;;;;;;;15.75;4.13;;;;;;;;;;5083040;28;20074;-61
2023/03/24 06:25:26;;;;;;;10.68;4.97;;;;;;;;;;5071746;28;20394;-61
2023/03/24 06:27:51;;;;;;;13.15;3.28;;;;;;;;;;5072225;28;20437;-62
2023/03/24 06:30:17;;;;;;;8.50;3.35;;;;;;;;;;5076869;28;20120;-61
2023/03/24 06:32:45;;;;;;;7.72;3.63;;;;;;;;;;5071335;28;20048;-63
2023/03/24 06:35:10;;;;;;;7.22;3.42;;;;;;;;;;5075669;28;20111;-60
2023/03/24 06:37:35;;;;;;;10.75;4.32;;;;;;;;;;5071235;28;20511;-61
2023/03/24 06:40:01;;;;;;;9.88;3.35;;;;;;;;;;5084789;28;20394;-61
2023/03/24 06:42:26;;;;;;;9.73;4.40;;;;;;;;;;5071484;28;20395;-61
2023/03/24 06:44:51;;;;;;;10.15;4.70;;;;;;;;;;5071685;28;20033;-61
2023/03/24 06:47:16;;;;;;;12.70;5.03;;;;;;;;;;5070695;28;20032;-61
2023/03/24 06:49:42;;;;;;;11.85;3.67;;;;;;;;;;5071292;28;20107;-61
2023/03/24 06:52:07;;;;;;;10.13;3.72;;;;;;;;;;5071489;28;20021;-61
2023/03/24 06:54:33;;;;;;;9.77;4.22;;;;;;;;;;5071181;28;20486;-61
2023/03/24 06:56:58;;;;;;;11.98;3.67;;;;;;;;;;5070738;28;20031;-61
2023/03/24 06:59:23;;;;;;;10.23;3.95;;;;;;;;;;5081498;28;20031;-61
2023/03/24 07:01:52;;;;;;;8.48;3.60;;;;;;;;;;5070970;28;20020;-61
2023/03/24 07:04:18;;;;;;;9.57;3.65;;;;;;;;;;5071503;28;20037;-61
2023/03/24 07:06:44;;;;;;;8.13;3.30;;;;;;;;;;5071327;28;20367;-61
2023/03/24 07:09:11;;;;;;;10.48;4.03;;;;;;;;;;5071771;28;20108;-61
2023/03/24 07:11:36;;;;;;;9.57;3.45;;;;;;;;;;5094784;28;20028;-61
2023/03/24 07:14:01;;;;;;;15.02;3.92;;;;;;;;;;5079406;28;20422;-61
2023/03/24 07:16:26;;;;;;;12.18;3.40;;;;;;;;;;5074494;28;20030;-61
2023/03/24 07:18:52;;;;;;;9.57;3.65;;;;;;;;;;5074375;28;20021;-61
2023/03/24 07:21:17;;;;;;;11.75;3.50;;;;;;;;;;5074342;28;20089;-61
2023/03/24 07:23:42;;;;;;;12.05;3.92;;;;;;;;;;5074481;28;20020;-61
2023/03/24 07:26:08;;;;;;;16.52;4.35;;;;;;;;;;5074473;28;20469;-61
2023/03/24 07:28:33;;;;;;;9.32;3.28;;;;;;;;;;5076818;28;20016;-61
2023/03/24 07:31:01;;;;;;;11.30;3.90;;;;;;;;;;5076482;28;20032;-61
2023/03/24 07:33:26;;;;;;;9.07;3.08;;;;;;;;;;5073810;28;20028;-60
2023/03/24 07:35:56;;;;;;;10.80;3.58;;;;;;;;;;5073635;28;20039;-61
2023/03/24 07:38:21;;;;;;;11.40;3.60;;;;;;;;;;5076081;28;20024;-61
2023/03/24 07:40:47;;;;;;;16.17;3.97;;;;;;;;;;5075176;28;20028;-60
2023/03/24 07:43:12;;;;;;;9.98;3.35;;;;;;;;;;5073278;28;20512;-61
2023/03/24 07:45:37;;;;;;;9.32;3.35;;;;;;;;;;5072192;28;20025;-61
2023/03/24 07:48:02;;;;;;;11.13;3.88;;;;;;;;;;5074879;28;20054;-60
2023/03/24 07:50:28;;;;;;;6.95;3.33;;;;;;;;;;5073231;28;20410;-61
2023/03/24 07:52:53;;;;;;;11.73;3.92;;;;;;;;;;5075685;28;20475;-61
2023/03/24 07:55:19;;;;;;;17.33;4.68;;;;;;;;;;5074866;28;21179;-60
2023/03/24 07:57:45;;;;;;;22.40;4.45;;;;;;;;;;5076558;28;20036;-61
2023/03/24 08:00:29;;;;;;;10.30;3.78;;;;;;;;;;5075315;28;20105;-61
2023/03/24 08:02:54;;;;;;;11.95;3.53;;;;;;;;;;5073879;28;20107;-60
2023/03/24 08:05:21;;;;;;;12.60;4.05;;;;;;;;;;5074479;28;20107;-60
2023/03/24 08:07:54;;;;;;;12.43;3.50;;;;;;;;;;5073746;28;20025;-61
2023/03/24 08:10:21;;;;;;;13.98;3.92;;;;;;;;;;5085047;28;20028;-61
2023/03/24 08:12:47;;;;;;;12.60;4.53;;;;;;;;;;5087838;28;20025;-61
2023/03/24 08:15:13;;;;;;;11.95;4.03;;;;;;;;;;5090255;28;20016;-61
2023/03/24 08:17:39;;;;;;;15.70;4.50;;;;;;;;;;5075331;28;20024;-60
2023/03/24 08:20:12;;;;;;;13.80;4.28;;;;;;;;;;5077933;28;20025;-61
2023/03/24 08:22:40;;;;;;;15.05;4.28;;;;;;;;;;5073926;28;20029;-61
2023/03/24 08:25:06;;;;;;;11.20;4.10;;;;;;;;;;5076342;28;20033;-60
2023/03/24 08:27:31;;;;;;;14.73;3.80;;;;;;;;;;5071952;28;20383;-61
2023/03/24 08:29:56;;;;;;;19.08;4.47;;;;;;;;;;5075452;28;20055;-60
2023/03/24 08:32:22;;;;;;;14.70;4.93;;;;;;;;;;5072469;28;20066;-60
2023/03/24 08:34:47;;;;;;;14.00;3.88;;;;;;;;;;5072893;28;20376;-60
2023/03/24 08:37:12;;;;;;;9.73;4.22;;;;;;;;;;5076693;28;20032;-61
2023/03/24 08:39:38;;;;;;;13.32;4.28;;;;;;;;;;5080906;28;20111;-61
2023/03/24 08:42:03;;;;;;;9.68;4.05;;;;;;;;;;5072294;28;20020;-61
2023/03/24 08:44:29;;;;;;;12.27;4.78;;;;;;;;;;5084232;28;20505;-61
2023/03/24 08:46:55;;;;;;;8.93;4.18;;;;;;;;;;5074366;28;20050;-61
2023/03/24 08:49:20;;;;;;;12.00;4.35;;;;;;;;;;5081198;28;20039;-62
2023/03/24 08:51:45;;;;;;;11.05;4.65;;;;;;;;;;5074438;28;20463;-61
2023/03/24 08:54:11;;;;;;;12.25;4.47;;;;;;;;;;5072128;28;20106;-61
2023/03/24 08:56:37;;;;;;;15.13;4.10;;;;;;;;;;5072126;28;20024;-61
2023/03/24 08:59:03;;;;;;;10.18;3.97;;;;;;;;;;5077524;28;20020;-61
2023/03/24 09:01:28;;;;;;;12.07;4.07;;;;;;;;;;5077793;28;20433;-61
2023/03/24 09:03:54;;;;;;;15.82;4.25;;;;;;;;;;5077298;28;20020;-61
2023/03/24 09:06:20;;;;;;;14.73;4.05;;;;;;;;;;5078469;28;20024;-61
2023/03/24 09:08:45;;;;;;;12.30;4.07;;;;;;;;;;5085713;28;20032;-61
2023/03/24 09:11:20;;;;;;;8.57;3.78;;;;;;;;;;5087443;28;20499;-61
2023/03/24 09:13:46;;;;;;;10.75;3.92;;;;;;;;;;5074550;28;20031;-61
2023/03/24 09:16:12;;;;;;;12.60;3.72;;;;;;;;;;5071655;28;20102;-61
2023/03/24 09:18:37;;;;;;;7.88;3.50;;;;;;;;;;5073507;28;20114;-61
2023/03/24 09:21:03;;;;;;;9.38;3.60;;;;;;;;;;5076610;28;20440;-61
2023/03/24 09:23:30;;;;;;;12.82;3.78;;;;;;;;;;5074510;28;20108;-61
2023/03/24 09:25:56;;;;;;;11.60;3.92;;;;;;;;;;5073001;28;20028;-62
2023/03/24 09:28:21;;;;;;;6.90;3.22;;;;;;;;;;5079308;28;20031;-62
2023/03/24 09:30:47;;;;;;;9.80;3.20;;;;;;;;;;5073816;28;20478;-62
2023/03/24 09:33:12;;;;;;;10.75;3.40;;;;;;;;;;5073545;28;20040;-61
2023/03/24 09:35:38;;;;;;;14.80;4.05;;;;;;;;;;5071916;28;20063;-61
2023/03/24 09:38:04;;;;;;;7.07;3.25;;;;;;;;;;5071920;28;20493;-61
2023/03/24 09:40:35;;;;;;;5.65;2.60;;;;;;;;;;5083400;28;20486;-62
2023/03/24 09:43:03;;;;;;;7.70;3.58;;;;;;;;;;5087706;28;20070;-62
2023/03/24 09:45:29;;;;;;;10.13;2.92;;;;;;;;;;5079429;28;20089;-62
2023/03/24 09:47:57;;;;;;;11.40;3.42;;;;;;;;;;5062922;28;20028;-62
2023/03/24 09:50:22;;;;;;;14.30;3.80;;;;;;;;;;5081579;28;20074;-61
2023/03/24 09:52:52;;;;;;;11.23;3.53;;;;;;;;;;5071393;28;20067;-61
2023/03/24 09:55:22;;;;;;;9.90;3.42;;;;;;;;;;5083452;28;20404;-61
2023/03/24 09:57:49;;;;;;;9.93;3.92;;;;;;;;;;5071039;28;20032;-61
2023/03/24 10:00:22;;;;;;;6.50;2.83;;;;;;;;;;5074825;28;20494;-61
2023/03/24 10:02:47;;;;;;;10.32;3.42;;;;;;;;;;5070720;28;20021;-61
2023/03/24 10:05:14;;;;;;;11.98;4.07;;;;;;;;;;5073694;28;20077;-62
2023/03/24 10:07:47;;;;;;;9.23;2.70;;;;;;;;;;5074557;28;20027;-61
2023/03/24 10:10:35;;;;;;;7.10;3.50;;;;;;;;;;5082610;28;20150;-61
2023/03/24 10:13:14;;;;;;;6.18;2.85;;;;;;;;;;5061053;28;20055;-61
2023/03/24 10:15:47;;;;;;;9.63;3.65;;;;;;;;;;5074500;28;20056;-62
2023/03/24 10:18:12;;;;;;;14.95;3.67;;;;;;;;;;5082676;28;20028;-61
2023/03/24 10:20:37;;;;;;;9.33;3.53;;;;;;;;;;5073666;28;20371;-61
2023/03/24 10:23:02;;;;;;;6.03;2.43;;;;;;;;;;5073299;28;20614;-61
2023/03/24 10:25:43;;;;;;;6.60;2.97;;;;;;;;;;5071707;28;20701;-61
2023/03/24 10:28:08;;;;;;;10.27;2.55;;;;;;;;;;5073539;28;20263;-63
2023/03/24 10:30:38;;;;;;;10.80;3.57;;;;;;;;;;5073947;28;20024;-62
2023/03/24 10:33:03;;;;;;;16.60;3.60;;;;;;;;;;5070837;28;20746;-61
2023/03/24 10:35:32;;;;;;;11.02;3.28;;;;;;;;;;5072314;28;20112;-61
2023/03/24 10:37:58;;;;;;;5.38;2.53;;;;;;;;;;5070819;28;20093;-62
2023/03/24 10:40:26;;;;;;;8.57;3.60;;;;;;;;;;5073568;28;20107;-61
2023/03/24 10:42:51;;;;;;;8.73;3.92;;;;;;;;;;5070926;28;20474;-62
2023/03/24 10:45:24;;;;;;;7.97;3.53;;;;;;;;;;5080480;28;20031;-62
2023/03/24 10:47:50;;;;;;;7.90;3.60;;;;;;;;;;5074912;28;20428;-61
2023/03/24 10:50:15;;;;;;;8.85;3.75;;;;;;;;;;5083992;28;20102;-62
2023/03/24 10:52:47;;;;;;;9.35;3.17;;;;;;;;;;5082530;28;20024;-61
2023/03/24 10:55:15;;;;;;;11.43;3.60;;;;;;;;;;5083525;28;20027;-62
2023/03/24 10:57:42;;;;;;;6.63;3.30;;;;;;;;;;5074671;28;20131;-62
2023/03/24 11:00:18;;;;;;;8.40;2.78;;;;;;;;;;5079645;28;20085;-61
2023/03/24 11:02:43;;;;;;;7.75;2.78;;;;;;;;;;5074701;28;20082;-62
2023/03/24 11:05:11;;;;;;;8.57;3.97;;;;;;;;;;5078233;28;20024;-62
2023/03/24 11:07:58;;;;;;;5.63;2.90;;;;;;;;;;5073699;28;20060;-61
2023/03/24 11:10:24;;;;;;;10.02;3.08;;;;;;;;;;5093564;28;20040;-62
2023/03/24 11:12:52;;;;;;;13.35;3.83;;;;;;;;;;5076222;28;20382;-61
2023/03/24 11:15:19;;;;;;;8.57;3.58;;;;;;;;;;5086081;28;20031;-61
2023/03/24 11:17:45;;;;;;;7.72;3.42;;;;;;;;;;5076809;28;20020;-62
2023/03/24 11:20:23;;;;;;;7.50;2.90;;;;;;;;;;5074088;28;20028;-61
2023/03/24 11:22:55;;;;;;;7.47;2.92;;;;;;;;;;5085369;28;20034;-62
2023/03/24 11:25:24;;;;;;;10.48;3.47;;;;;;;;;;5073997;28;20024;-61
2023/03/24 11:27:50;;;;;;;15.35;3.47;;;;;;;;;;5081746;28;20462;-61
2023/03/24 11:30:16;;;;;;;14.07;3.78;;;;;;;;;;5083767;28;20043;-61
2023/03/24 11:32:45;;;;;;;12.60;3.60;;;;;;;;;;5087162;28;20106;-62
2023/03/24 11:35:16;;;;;;;6.68;3.08;;;;;;;;;;5085036;28;20032;-63
2023/03/24 11:37:43;;;;;;;5.68;2.80;;;;;;;;;;5078888;28;20024;-62
2023/03/24 11:40:11;;;;;;;15.00;3.20;;;;;;;;;;5082831;28;20402;-62
2023/03/24 11:42:41;;;;;;;12.10;2.92;;;;;;;;;;5078622;28;20057;-62
2023/03/24 11:45:24;;;;;;;7.30;2.50;;;;;;;;;;5076007;28;20017;-62
2023/03/24 11:47:51;;;;;;;8.60;2.78;;;;;;;;;;5079563;28;20020;-62
2023/03/24 11:50:19;;;;;;;6.30;2.67;;;;;;;;;;5083477;28;20130;-61
2023/03/24 11:52:44;;;;;;;8.05;2.50;;;;;;;;;;5078667;28;20093;-61
2023/03/24 11:55:28;;;;;;;6.65;2.40;;;;;;;;;;5072772;28;20029;-61
2023/03/24 11:58:08;;;;;;;5.60;2.08;;;;;;;;;;5072461;28;20024;-63
2023/03/24 12:00:47;;;;;;;4.13;1.88;;;;;;;;;;5079176;28;20479;-62
2023/03/24 12:03:31;;;;;;;5.95;2.13;;;;;;;;;;5080329;28;20524;-62
2023/03/24 12:06:12;;;;;;;4.95;2.15;;;;;;;;;;5079982;28;20024;-62
2023/03/24 12:08:37;;;;;;;5.00;2.13;;;;;;;;;;5083968;28;20451;-62
2023/03/24 12:11:09;;;;;;;5.32;2.65;;;;;;;;;;5087952;28;20043;-62
2023/03/24 12:13:35;;;;;;;6.10;2.45;;;;;;;;;;5073993;28;20028;-62
2023/03/24 12:16:03;;;;;;;5.43;2.38;;;;;;;;;;5073728;28;20016;-62
2023/03/24 12:18:57;;;;;;;5.80;2.28;;;;;;;;;;5077980;28;20024;-62
2023/03/24 12:21:25;;;;;;;11.27;2.05;;;;;;;;;;5067343;28;20040;-62
2023/03/24 12:23:55;;;;;;;9.60;2.80;;;;;;;;;;5089460;28;20050;-63
2023/03/24 12:26:27;;;;;;;6.90;2.20;;;;;;;;;;5073170;28;20109;-63
2023/03/24 12:28:52;;;;;;;5.28;2.10;;;;;;;;;;5084576;28;20027;-62
2023/03/24 12:31:36;;;;;;;11.57;2.73;;;;;;;;;;5073079;28;20032;-62
2023/03/24 12:34:21;;;;;;;6.20;1.90;;;;;;;;;;5082249;28;20363;-62
2023/03/24 12:36:50;;;;;;;7.18;2.45;;;;;;;;;;5071829;28;20028;-63
2023/03/24 12:39:29;;;;;;;4.43;2.15;;;;;;;;;;5087636;28;20028;-63
2023/03/24 12:41:55;;;;;;;6.72;2.70;;;;;;;;;;5078203;28;20031;-63
2023/03/24 12:44:32;;;;;;;5.83;2.40;;;;;;;;;;5079440;28;20115;-64
2023/03/24 12:47:16;;;;;;;8.10;2.20;;;;;;;;;;5072566;28;20279;-62
2023/03/24 12:49:52;;;;;;;7.38;2.42;;;;;;;;;;5078699;28;20024;-62
2023/03/24 12:52:34;;;;;;;9.02;2.53;;;;;;;;;;5073042;28;20043;-62
2023/03/24 12:55:03;;;;;;;6.03;1.80;;;;;;;;;;5072597;28;20028;-62
2023/03/24 12:57:30;;;;;;;6.05;2.00;;;;;;;;;;5070952;28;20044;-63
2023/03/24 12:59:58;;;;;;;5.55;1.83;;;;;;;;;;5078232;28;20028;-62
2023/03/24 13:02:30;;;;;;;5.30;2.55;;;;;;;;;;5074553;28;20024;-62
2023/03/24 13:04:58;;;;;;;3.85;2.00;;;;;;;;;;5080342;28;20021;-62
2023/03/24 13:07:27;;;;;;;5.57;2.35;;;;;;;;;;5071502;28;20417;-62
2023/03/24 13:09:58;;;;;;;6.18;2.20;;;;;;;;;;5083836;28;20455;-61
2023/03/24 13:12:26;;;;;;;5.03;2.15;;;;;;;;;;5077506;28;20043;-62
2023/03/24 13:15:06;;;;;;;6.78;2.38;;;;;;;;;;5082655;28;20025;-62
2023/03/24 13:18:01;;;;;;;4.25;2.08;;;;;;;;;;5085014;28;20052;-62
2023/03/24 13:20:35;;;;;;;8.05;2.60;;;;;;;;;;5058464;28;20037;-62
2023/03/24 13:23:04;;;;;;;4.63;1.98;;;;;;;;;;5074966;28;20032;-62
2023/03/24 13:25:41;;;;;;;4.45;1.75;;;;;;;;;;5075533;28;20033;-61
2023/03/24 13:28:09;;;;;;;4.50;1.80;;;;;;;;;;5075704;28;20027;-61
2023/03/24 13:30:40;;;;;;;6.47;1.58;;;;;;;;;;5073356;28;20032;-62
2023/03/24 13:33:05;;;;;;;7.50;2.38;;;;;;;;;;5074969;28;20027;-61
2023/03/24 13:35:48;;;;;;;6.20;2.10;;;;;;;;;;5074002;28;20383;-61
2023/03/24 13:38:17;;;;;;;3.88;1.83;;;;;;;;;;5082941;28;20070;-61
2023/03/24 13:40:44;;;;;;;4.60;1.92;;;;;;;;;;5078707;28;20028;-61
2023/03/24 13:43:17;;;;;;;6.13;2.15;;;;;;;;;;5073063;28;20032;-62
2023/03/24 13:45:47;;;;;;;12.50;2.38;;;;;;;;;;5082857;28;20542;-62
2023/03/24 13:48:12;;;;;;;6.45;3.00;;;;;;;;;;5068169;28;20016;-62
2023/03/24 13:50:52;;;;;;;5.40;2.47;;;;;;;;;;5069083;28;20154;-62
2023/03/24 13:53:29;;;;;;;4.45;1.88;;;;;;;;;;5072438;28;20281;-63
2023/03/24 13:55:54;;;;;;;5.07;2.60;;;;;;;;;;5070909;28;20060;-62
2023/03/24 13:58:21;;;;;;;4.50;1.98;;;;;;;;;;5072886;28;20051;-62
2023/03/24 14:01:07;;;;;;;10.98;2.28;;;;;;;;;;5071249;28;20024;-62
2023/03/24 14:03:33;;;;;;;5.20;2.33;;;;;;;;;;5063250;28;20449;-62
2023/03/24 14:06:00;;;;;;;5.80;2.45;;;;;;;;;;5076718;28;20084;-62
2023/03/24 14:08:44;;;;;;;6.13;2.22;;;;;;;;;;5080491;28;20034;-62
2023/03/24 14:11:27;;;;;;;7.53;2.10;;;;;;;;;;5084443;28;20135;-62
2023/03/24 14:13:53;;;;;;;6.63;2.05;;;;;;;;;;5077992;28;20081;-62
2023/03/24 14:16:35;;;;;;;6.55;2.05;;;;;;;;;;5071549;28;20032;-61
2023/03/24 14:19:27;;;;;;;5.15;2.22;;;;;;;;;;5077516;28;20107;-61
2023/03/24 14:21:57;;;;;;;4.72;2.03;;;;;;;;;;5070668;28;20123;-61
2023/03/24 14:24:23;;;;;;;9.88;2.60;;;;;;;;;;5088015;28;20673;-61
2023/03/24 14:26:49;;;;;;;4.00;1.95;;;;;;;;;;5074486;28;20036;-61
2023/03/24 14:29:33;;;;;;;13.70;2.33;;;;;;;;;;5076877;28;20020;-62
2023/03/24 14:32:02;;;;;;;7.38;2.75;;;;;;;;;;5088371;28;20035;-61
2023/03/24 14:34:27;;;;;;;5.95;2.67;;;;;;;;;;5075591;28;20037;-61
2023/03/24 14:37:00;;;;;;;8.88;3.38;;;;;;;;;;5074006;28;20142;-62
2023/03/24 14:39:44;;;;;;;5.82;1.73;;;;;;;;;;5084953;28;20066;-63
2023/03/24 14:42:27;;;;;;;10.55;2.17;;;;;;;;;;5074625;28;20111;-63
2023/03/24 14:44:56;;;;;;;4.82;1.30;;;;;;;;;;5088144;28;20548;-63
2023/03/24 14:47:24;;;;;;;3.05;0.95;;;;;;;;;;5080252;28;20024;-63
2023/03/24 14:49:53;;;;;;;4.57;1.75;;;;;;;;;;5087049;28;20089;-62
2023/03/24 14:52:21;;;;;;;8.25;1.65;;;;;;;;;;5074421;28;20036;-62